Alexander, Kansas
Current Conditions -  °F | °C
As of 12:35 PM on Thursday 27 Nov 2014 (Local Time) from KHYS Reporting Station
Clear Clear  
Wind Chill: 36°   Ceiling: Unl
Heat Index: 45°   Visibility: 10mi
Dew Point: 19°   Wind: 22mph
Humidity: 37%   Direction: 190°S
Pressure: 30.3"   Gusts: NA
Location:  38.47°N, 99.55°W
Report Text: KHYS 271835Z AUTO 19019KT 10SM CLR 07/M07 A3030 RMK AO1
Loading
Personal Weather Stations






























Interactive Weather Map New forecast layout! Learn more

10-Day Weather Forecast

Advertisements
Track Severe Weather on mobile